createdAt,value
2023-03-03T00:01:07.611Z,5.17
2023-03-03T00:03:57.629Z,5.39
2023-03-03T00:06:28.050Z,5.20
2023-03-03T00:08:56.585Z,5.16
2023-03-03T00:11:28.278Z,5.22
2023-03-03T00:14:00.658Z,5.24
2023-03-03T00:16:33.971Z,5.37
2023-03-03T00:19:04.841Z,5.42
2023-03-03T00:21:43.291Z,5.36
2023-03-03T00:24:21.697Z,5.31
2023-03-03T00:26:58.588Z,5.42
2023-03-03T00:29:40.662Z,5.33
2023-03-03T00:32:31.282Z,5.34
2023-03-03T00:35:30.794Z,5.39
2023-03-03T00:38:08.616Z,5.39
2023-03-03T00:40:42.192Z,5.48
2023-03-03T00:43:29.833Z,5.42
2023-03-03T00:46:07.329Z,5.55
2023-03-03T00:48:48.717Z,5.29
2023-03-03T00:51:31.564Z,5.37
2023-03-03T00:54:04.990Z,5.14
2023-03-03T00:56:33.561Z,5.06
2023-03-03T00:59:04.269Z,5.03
2023-03-03T01:01:38.408Z,5.03
2023-03-03T01:04:14.128Z,5.09
2023-03-03T01:06:45.962Z,4.92
2023-03-03T01:09:24.304Z,4.89
2023-03-03T01:11:57.117Z,4.86
2023-03-03T01:14:28.708Z,5.13
2023-03-03T01:16:59.346Z,5.02
2023-03-03T01:19:33.882Z,5.01
2023-03-03T01:22:06.386Z,4.95
2023-03-03T01:24:39.069Z,4.93
2023-03-03T01:27:07.473Z,4.90
2023-03-03T01:29:39.712Z,5.01
2023-03-03T01:32:14.723Z,4.97
2023-03-03T01:34:53.262Z,5.02
2023-03-03T01:37:30.751Z,4.86
2023-03-03T01:39:59.492Z,5.00
2023-03-03T01:42:33.392Z,5.11
2023-03-03T01:45:20.579Z,5.02
2023-03-03T01:48:01.094Z,5.02
2023-03-03T01:50:48.820Z,5.10
2023-03-03T01:53:23.961Z,5.10
2023-03-03T01:56:02.129Z,5.11
2023-03-03T01:58:38.610Z,5.06
2023-03-03T02:01:14.904Z,5.18
2023-03-03T02:03:47.674Z,5.09
2023-03-03T02:06:27.467Z,4.88
2023-03-03T02:09:01.731Z,5.04
2023-03-03T02:11:39.358Z,5.07
2023-03-03T02:14:07.731Z,5.03
2023-03-03T02:16:36.527Z,5.02
2023-03-03T02:19:10.311Z,4.99
2023-03-03T02:21:51.496Z,5.17
2023-03-03T02:24:43.046Z,5.19
2023-03-03T02:27:17.931Z,5.05
2023-03-03T02:29:54.947Z,5.01
2023-03-03T02:32:27.162Z,5.15
2023-03-03T02:34:57.890Z,4.98
2023-03-03T02:37:27.101Z,5.14
2023-03-03T02:39:57.014Z,5.06
2023-03-03T02:42:29.366Z,4.88
2023-03-03T02:45:08.450Z,5.07
2023-03-03T02:47:55.773Z,5.08
2023-03-03T02:50:32.806Z,5.10
2023-03-03T02:53:06.285Z,5.04
2023-03-03T02:55:43.047Z,5.27
2023-03-03T02:58:21.131Z,5.17
2023-03-03T03:01:02.480Z,5.10
2023-03-03T03:03:37.371Z,5.01
2023-03-03T03:06:12.129Z,5.05
2023-03-03T03:08:49.337Z,5.04
2023-03-03T03:11:24.446Z,4.86
2023-03-03T03:14:06.141Z,4.94
2023-03-03T03:16:43.691Z,4.89
2023-03-03T03:19:12.825Z,4.87
2023-03-03T03:21:48.367Z,4.89
2023-03-03T03:24:26.739Z,4.98
2023-03-03T03:27:09.085Z,4.91
2023-03-03T03:29:42.595Z,4.64
2023-03-03T03:32:21.961Z,4.84
2023-03-03T03:34:51.006Z,4.81
2023-03-03T03:37:29.172Z,4.81
2023-03-03T03:40:22.911Z,4.69
2023-03-03T03:42:55.099Z,4.69
2023-03-03T03:45:34.340Z,4.65
2023-03-03T03:48:07.609Z,4.75
2023-03-03T03:50:40.019Z,4.73
2023-03-03T03:53:13.263Z,4.66
2023-03-03T03:55:41.630Z,4.73
2023-03-03T03:58:13.641Z,4.70
2023-03-03T04:00:44.861Z,4.75
2023-03-03T04:03:24.653Z,4.60
2023-03-03T04:05:55.514Z,4.67
2023-03-03T04:08:25.745Z,4.73
2023-03-03T04:10:56.736Z,4.47
2023-03-03T04:13:29.117Z,4.64
2023-03-03T04:15:59.213Z,4.48
2023-03-03T04:18:29.484Z,4.46
2023-03-03T04:21:01.069Z,4.50
2023-03-03T04:23:32.692Z,4.54
2023-03-03T04:26:10.261Z,4.45
2023-03-03T04:28:40.302Z,4.35
2023-03-03T04:31:13.659Z,4.41
2023-03-03T04:33:47.369Z,4.32
2023-03-03T04:36:24.614Z,4.26
2023-03-03T04:38:58.897Z,4.29
2023-03-03T04:41:27.743Z,4.10
2023-03-03T04:43:57.045Z,3.99
2023-03-03T04:46:29.069Z,4.28
2023-03-03T04:49:08.410Z,4.17
2023-03-03T04:51:41.719Z,4.32
2023-03-03T04:54:11.843Z,4.18
2023-03-03T04:56:42.435Z,4.21
2023-03-03T04:59:14.147Z,4.30
2023-03-03T05:01:46.598Z,4.16
2023-03-03T05:04:20.982Z,4.18
2023-03-03T05:06:52.287Z,4.27
2023-03-03T05:09:23.080Z,4.25
2023-03-03T05:11:55.158Z,4.08
2023-03-03T05:14:24.835Z,4.24
2023-03-03T05:17:03.140Z,4.00
2023-03-03T05:19:37.247Z,4.08
2023-03-03T05:22:22.381Z,3.98
2023-03-03T05:24:51.906Z,3.98
2023-03-03T05:27:22.774Z,3.79
2023-03-03T05:29:59.807Z,3.77
2023-03-03T05:32:33.022Z,3.98
2023-03-03T05:35:02.858Z,3.65
2023-03-03T05:37:33.092Z,3.43
2023-03-03T05:40:05.088Z,3.39
2023-03-03T05:42:33.816Z,3.66
2023-03-03T05:45:07.030Z,3.52
2023-03-03T05:47:44.647Z,3.43
2023-03-03T05:50:21.521Z,3.46
2023-03-03T05:52:52.754Z,3.58
2023-03-03T05:55:21.998Z,3.57
2023-03-03T05:57:50.848Z,3.72
2023-03-03T06:00:21.238Z,3.69
2023-03-03T06:02:53.457Z,3.51
2023-03-03T06:05:27.547Z,3.70
2023-03-03T06:08:00.743Z,3.85
2023-03-03T06:10:32.418Z,3.90
2023-03-03T06:13:08.808Z,3.70
2023-03-03T06:15:43.056Z,3.88
2023-03-03T06:18:23.808Z,3.78
2023-03-03T06:20:54.166Z,3.89
2023-03-03T06:23:22.831Z,3.71
2023-03-03T06:25:53.534Z,3.89
2023-03-03T06:28:25.131Z,4.05
2023-03-03T06:31:00.600Z,4.12
2023-03-03T06:33:30.638Z,4.28
2023-03-03T06:36:00.299Z,4.09
2023-03-03T06:38:44.867Z,4.15
2023-03-03T06:41:14.995Z,4.19
2023-03-03T06:44:00.228Z,4.53
2023-03-03T06:46:32.022Z,4.47
2023-03-03T06:49:11.215Z,4.73
2023-03-03T06:51:45.502Z,4.70
2023-03-03T06:54:24.402Z,4.84
2023-03-03T06:56:58.241Z,4.66
2023-03-03T06:59:28.737Z,4.76
2023-03-03T07:02:05.638Z,4.66
2023-03-03T07:04:49.190Z,4.88
2023-03-03T07:07:21.933Z,4.91
2023-03-03T07:10:00.049Z,4.81
2023-03-03T07:12:31.861Z,4.94
2023-03-03T07:15:15.578Z,4.98
2023-03-03T07:17:49.798Z,5.07
2023-03-03T07:20:36.882Z,4.95
2023-03-03T07:23:19.473Z,5.06
2023-03-03T07:25:56.596Z,5.16
2023-03-03T07:28:26.953Z,5.15
2023-03-03T07:31:02.368Z,5.20
2023-03-03T07:33:42.744Z,5.20
2023-03-03T07:36:30.581Z,5.27
2023-03-03T07:39:01.996Z,5.30
2023-03-03T07:41:37.149Z,5.51
2023-03-03T07:44:08.652Z,5.40
2023-03-03T07:46:42.872Z,5.40
2023-03-03T07:49:25.590Z,5.53
2023-03-03T07:51:58.604Z,5.57
2023-03-03T07:54:43.362Z,5.59
2023-03-03T07:57:26.846Z,5.57
2023-03-03T08:00:04.836Z,5.63
2023-03-03T08:02:57.735Z,5.80
2023-03-03T08:05:34.338Z,5.73
2023-03-03T08:08:30.732Z,5.65
2023-03-03T08:11:01.314Z,6.00
2023-03-03T08:13:40.288Z,6.07
2023-03-03T08:16:32.679Z,6.19
2023-03-03T08:19:05.227Z,6.06
2023-03-03T08:21:38.331Z,6.34
2023-03-03T08:24:10.144Z,6.26
2023-03-03T08:26:39.456Z,6.39
2023-03-03T08:29:21.029Z,6.54
2023-03-03T08:31:52.685Z,6.76
2023-03-03T08:34:21.933Z,7.02
2023-03-03T08:36:51.037Z,6.69
2023-03-03T08:39:25.751Z,6.81
2023-03-03T08:41:56.291Z,6.65
2023-03-03T08:44:28.309Z,6.71
2023-03-03T08:47:12.135Z,6.82
2023-03-03T08:49:43.038Z,6.98
2023-03-03T08:52:20.828Z,6.89
2023-03-03T08:55:08.968Z,6.86
2023-03-03T08:57:40.943Z,6.94
2023-03-03T09:00:13.057Z,6.98
2023-03-03T09:02:42.108Z,7.16
2023-03-03T09:05:18.676Z,7.39
2023-03-03T09:07:48.335Z,7.53
2023-03-03T09:10:32.689Z,7.44
2023-03-03T09:13:12.486Z,7.41
2023-03-03T09:15:44.167Z,7.23
2023-03-03T09:18:22.784Z,7.42
2023-03-03T09:20:53.768Z,7.27
2023-03-03T09:23:38.193Z,7.56
2023-03-03T09:26:41.086Z,7.61
2023-03-03T09:29:25.924Z,7.78
2023-03-03T09:31:56.428Z,7.72
2023-03-03T09:34:31.726Z,7.88
2023-03-03T09:37:04.943Z,7.97
2023-03-03T09:39:38.150Z,8.14
2023-03-03T09:42:43.081Z,7.78
2023-03-03T09:45:50.425Z,7.82
2023-03-03T09:48:49.324Z,8.01
2023-03-03T09:51:36.181Z,7.88
2023-03-03T09:54:43.143Z,7.99
2023-03-03T09:57:22.404Z,8.08
2023-03-03T10:00:08.532Z,8.17
2023-03-03T10:02:58.022Z,8.32
2023-03-03T10:05:32.838Z,8.21
2023-03-03T10:08:15.871Z,8.35
2023-03-03T10:10:55.597Z,8.37
2023-03-03T10:13:40.817Z,8.30
2023-03-03T10:16:41.421Z,8.25
2023-03-03T10:19:38.440Z,8.24
2023-03-03T10:22:25.413Z,8.47
2023-03-03T10:25:08.856Z,8.67
2023-03-03T10:27:55.594Z,8.86
2023-03-03T10:30:41.096Z,8.64
2023-03-03T10:33:25.856Z,8.81
2023-03-03T10:36:22.432Z,8.93
2023-03-03T10:39:03.726Z,9.27
2023-03-03T10:41:50.710Z,9.08
2023-03-03T10:44:54.584Z,9.07
2023-03-03T10:47:38.165Z,9.18
2023-03-03T10:50:21.376Z,9.16
2023-03-03T10:53:02.250Z,9.11
2023-03-03T10:55:45.522Z,8.89
2023-03-03T10:58:47.831Z,9.06
2023-03-03T11:01:29.891Z,9.21
2023-03-03T11:04:49.480Z,9.69
2023-03-03T11:07:26.340Z,9.77
2023-03-03T11:10:07.293Z,9.55
2023-03-03T11:12:48.264Z,9.89
2023-03-03T11:15:46.985Z,10.05
2023-03-03T11:18:27.127Z,10.05
2023-03-03T11:21:01.230Z,10.10
2023-03-03T11:23:50.473Z,10.12
2023-03-03T11:26:41.144Z,10.19
2023-03-03T11:29:35.316Z,10.38
2023-03-03T11:32:15.595Z,10.23
2023-03-03T11:34:59.259Z,10.07
2023-03-03T11:37:43.909Z,10.14
2023-03-03T11:40:25.265Z,10.29
2023-03-03T11:43:03.143Z,10.64
2023-03-03T11:45:41.567Z,10.27
2023-03-03T11:48:32.674Z,10.33
2023-03-03T11:51:09.193Z,10.40
2023-03-03T11:53:57.909Z,10.81
2023-03-03T11:56:40.385Z,10.82
2023-03-03T11:59:43.326Z,10.91
2023-03-03T12:02:36.119Z,10.92
2023-03-03T12:05:10.259Z,11.10
2023-03-03T12:07:46.026Z,11.00
2023-03-03T12:10:27.768Z,10.98
2023-03-03T12:13:06.149Z,10.61
2023-03-03T12:15:41.374Z,10.68
2023-03-03T12:18:50.112Z,10.84
2023-03-03T12:21:34.774Z,10.94
2023-03-03T12:24:27.187Z,10.80
2023-03-03T12:27:05.692Z,10.91
2023-03-03T12:29:46.893Z,10.96
2023-03-03T12:32:26.734Z,11.10
2023-03-03T12:34:59.967Z,11.13
2023-03-03T12:37:49.647Z,11.13
2023-03-03T12:40:21.479Z,11.30
2023-03-03T12:43:03.604Z,11.20
2023-03-03T12:45:39.592Z,11.28
2023-03-03T12:48:18.409Z,11.35
2023-03-03T12:50:59.225Z,11.35
2023-03-03T12:53:40.062Z,11.27
2023-03-03T12:56:11.101Z,11.18
2023-03-03T12:58:49.479Z,11.20
2023-03-03T13:01:39.613Z,11.31
2023-03-03T13:04:14.444Z,11.33
2023-03-03T13:06:51.858Z,11.32
2023-03-03T13:09:34.271Z,11.19
2023-03-03T13:12:26.060Z,11.26
2023-03-03T13:15:01.724Z,11.29
2023-03-03T13:17:40.473Z,11.22
2023-03-03T13:20:23.642Z,11.33
2023-03-03T13:22:58.064Z,11.32
2023-03-03T13:25:48.298Z,11.17
2023-03-03T13:28:26.814Z,11.17
2023-03-03T13:31:11.210Z,11.11
2023-03-03T13:33:49.070Z,11.29
2023-03-03T13:36:31.012Z,11.28
2023-03-03T13:39:05.950Z,11.37
2023-03-03T13:41:45.753Z,11.13
2023-03-03T13:44:21.478Z,11.20
2023-03-03T13:47:27.995Z,11.55
2023-03-03T13:50:05.722Z,11.32
2023-03-03T13:52:41.566Z,11.33
2023-03-03T13:55:59.383Z,11.22
2023-03-03T13:58:38.872Z,11.30
2023-03-03T14:01:12.845Z,11.16
2023-03-03T14:03:57.845Z,11.53
2023-03-03T14:06:33.596Z,11.33
2023-03-03T14:09:15.982Z,11.43
2023-03-03T14:11:48.858Z,11.59
2023-03-03T14:14:31.394Z,11.41
2023-03-03T14:17:08.133Z,11.48
2023-03-03T14:19:43.848Z,11.70
2023-03-03T14:22:45.679Z,11.51
2023-03-03T14:25:20.058Z,11.58
2023-03-03T14:28:05.263Z,11.41
2023-03-03T14:30:53.578Z,11.62
2023-03-03T14:33:29.427Z,11.49
2023-03-03T14:36:09.996Z,11.47
2023-03-03T14:38:48.411Z,11.58
2023-03-03T14:41:27.248Z,11.39
2023-03-03T14:44:46.843Z,11.46
2023-03-03T14:47:23.986Z,11.54
2023-03-03T14:49:55.930Z,11.48
2023-03-03T14:52:33.148Z,11.52
2023-03-03T14:55:10.628Z,11.65
2023-03-03T14:57:51.725Z,11.68
2023-03-03T15:00:42.462Z,11.58
2023-03-03T15:03:23.059Z,11.67
2023-03-03T15:05:55.187Z,11.58
2023-03-03T15:08:33.748Z,11.72
2023-03-03T15:11:22.676Z,11.71
2023-03-03T15:14:16.131Z,11.62
2023-03-03T15:16:46.224Z,11.65
2023-03-03T15:19:46.474Z,11.66
2023-03-03T15:22:26.283Z,11.74
2023-03-03T15:25:05.326Z,11.29
2023-03-03T15:27:37.876Z,11.38
2023-03-03T15:30:17.659Z,11.32
2023-03-03T15:32:50.183Z,11.54
2023-03-03T15:35:30.575Z,11.59
2023-03-03T15:38:04.792Z,11.56
2023-03-03T15:40:43.375Z,11.57
2023-03-03T15:43:26.384Z,11.61
2023-03-03T15:46:08.835Z,11.35
2023-03-03T15:48:56.640Z,11.33
2023-03-03T15:51:39.879Z,11.20
2023-03-03T15:54:36.830Z,11.37
2023-03-03T15:57:19.091Z,11.33
2023-03-03T16:00:12.995Z,11.25
2023-03-03T16:02:56.461Z,11.09
2023-03-03T16:05:36.961Z,11.09
2023-03-03T16:08:15.162Z,10.94
2023-03-03T16:10:59.153Z,10.95
2023-03-03T16:14:11.710Z,11.04
2023-03-03T16:16:48.086Z,10.92
2023-03-03T16:19:45.870Z,11.05
2023-03-03T16:22:35.697Z,10.81
2023-03-03T16:25:21.003Z,10.70
2023-03-03T16:27:56.635Z,10.91
2023-03-03T16:30:40.085Z,10.70
2023-03-03T16:33:21.062Z,10.57
2023-03-03T16:36:12.037Z,10.49
2023-03-03T16:38:43.408Z,10.40
2023-03-03T16:41:26.677Z,10.40
2023-03-03T16:44:08.745Z,10.44
2023-03-03T16:46:41.139Z,10.51
2023-03-03T16:49:24.450Z,10.34
2023-03-03T16:52:04.801Z,10.47
2023-03-03T16:54:41.992Z,10.29
2023-03-03T16:57:22.532Z,10.34
2023-03-03T17:00:06.279Z,10.36
2023-03-03T17:02:46.948Z,10.29
2023-03-03T17:05:27.231Z,10.30
2023-03-03T17:08:09.898Z,10.35
2023-03-03T17:10:44.023Z,10.15
2023-03-03T17:13:34.047Z,10.07
2023-03-03T17:16:13.584Z,10.19
2023-03-03T17:18:57.504Z,9.94
2023-03-03T17:21:35.789Z,10.10
2023-03-03T17:24:24.611Z,9.93
2023-03-03T17:27:04.617Z,9.87
2023-03-03T17:29:54.443Z,9.92
2023-03-03T17:32:37.879Z,9.75
2023-03-03T17:35:25.050Z,9.80
2023-03-03T17:38:04.848Z,9.78
2023-03-03T17:40:55.181Z,9.88
2023-03-03T17:43:26.830Z,10.07
2023-03-03T17:46:03.628Z,9.93
2023-03-03T17:48:55.611Z,9.71
2023-03-03T17:52:00.768Z,9.56
2023-03-03T17:54:59.560Z,9.60
2023-03-03T17:57:45.752Z,9.72
2023-03-03T18:00:33.079Z,9.52
2023-03-03T18:03:30.416Z,9.45
2023-03-03T18:06:24.483Z,9.45
2023-03-03T18:09:14.851Z,9.54
2023-03-03T18:12:06.367Z,9.36
2023-03-03T18:15:01.869Z,9.58
2023-03-03T18:17:56.476Z,9.20
2023-03-03T18:20:56.545Z,9.14
2023-03-03T18:23:42.235Z,9.18
2023-03-03T18:26:41.126Z,9.24
2023-03-03T18:29:32.512Z,9.15
2023-03-03T18:32:29.293Z,8.99
2023-03-03T18:35:25.540Z,8.92
2023-03-03T18:37:59.116Z,8.86
2023-03-03T18:40:37.487Z,8.84
2023-03-03T18:43:43.688Z,8.78
2023-03-03T18:46:54.003Z,8.81
2023-03-03T18:50:03.453Z,8.90
2023-03-03T18:52:38.291Z,8.76
2023-03-03T18:55:31.996Z,8.64
2023-03-03T18:58:45.983Z,8.58
2023-03-03T19:01:55.373Z,8.71
2023-03-03T19:04:34.999Z,8.56
2023-03-03T19:07:33.164Z,8.74
2023-03-03T19:10:08.018Z,8.55
2023-03-03T19:12:53.033Z,8.50
2023-03-03T19:15:53.773Z,8.46
2023-03-03T19:18:44.346Z,8.55
2023-03-03T19:21:35.557Z,8.53
2023-03-03T19:24:13.982Z,8.55
2023-03-03T19:27:29.212Z,8.38
2023-03-03T19:30:38.002Z,8.23
2023-03-03T19:33:49.639Z,8.08
2023-03-03T19:36:55.269Z,8.07
2023-03-03T19:40:02.306Z,8.06
2023-03-03T19:45:56.880Z,8.15
2023-03-03T19:48:40.166Z,8.06
2023-03-03T19:51:24.862Z,8.23
2023-03-03T19:54:00.598Z,8.06
2023-03-03T19:56:46.198Z,7.97
2023-03-03T19:59:44.885Z,8.07
2023-03-03T20:02:59.474Z,7.85
2023-03-03T20:05:45.208Z,7.82
2023-03-03T20:08:19.199Z,7.83
2023-03-03T20:11:00.230Z,7.79
2023-03-03T20:13:54.689Z,7.73
2023-03-03T20:16:35.447Z,7.96
2023-03-03T20:19:44.255Z,7.75
2023-03-03T20:22:20.943Z,7.56
2023-03-03T20:25:27.737Z,7.83
2023-03-03T20:28:16.901Z,7.70
2023-03-03T20:31:08.512Z,7.65
2023-03-03T20:34:10.868Z,7.82
2023-03-03T20:36:51.992Z,8.07
2023-03-03T20:39:46.974Z,7.86
2023-03-03T20:42:29.141Z,7.79
2023-03-03T20:45:36.481Z,7.50
2023-03-03T20:48:25.744Z,7.49
2023-03-03T20:51:07.857Z,7.39
2023-03-03T20:53:45.562Z,7.44
2023-03-03T20:56:29.636Z,7.40
2023-03-03T20:59:11.193Z,7.32
2023-03-03T21:01:46.230Z,7.49
2023-03-03T21:04:26.785Z,7.31
2023-03-03T21:07:02.623Z,7.28
2023-03-03T21:09:39.583Z,7.43
2023-03-03T21:12:44.811Z,7.28
2023-03-03T21:15:29.543Z,7.31
2023-03-03T21:18:04.605Z,7.39
2023-03-03T21:20:41.123Z,7.14
2023-03-03T21:23:22.261Z,6.95
2023-03-03T21:25:58.439Z,6.90
2023-03-03T21:28:37.630Z,7.07
2023-03-03T21:31:28.715Z,6.95
2023-03-03T21:33:59.051Z,7.19
2023-03-03T21:37:02.391Z,6.94
2023-03-03T21:39:41.610Z,6.96
2023-03-03T21:42:22.253Z,6.91
2023-03-03T21:44:54.907Z,6.83
2023-03-03T21:47:24.857Z,6.83
2023-03-03T21:49:54.156Z,6.68
2023-03-03T21:52:35.265Z,6.62
2023-03-03T21:55:06.616Z,6.74
2023-03-03T21:57:43.971Z,6.87
2023-03-03T22:00:17.330Z,6.52
2023-03-03T22:02:46.967Z,6.60
2023-03-03T22:05:25.329Z,6.94
2023-03-03T22:07:57.385Z,6.63
2023-03-03T22:10:30.337Z,6.65
2023-03-03T22:13:08.090Z,6.54
2023-03-03T22:15:39.457Z,6.47
2023-03-03T22:18:14.624Z,6.45
2023-03-03T22:20:43.442Z,6.43
2023-03-03T22:23:26.175Z,6.30
2023-03-03T22:25:57.646Z,6.40
2023-03-03T22:28:29.233Z,6.64
2023-03-03T22:30:58.123Z,6.40
2023-03-03T22:33:41.446Z,6.39
2023-03-03T22:36:10.622Z,6.32
2023-03-03T22:38:51.211Z,6.27
2023-03-03T22:41:26.673Z,6.27
2023-03-03T22:43:56.522Z,6.40
2023-03-03T22:46:33.066Z,6.44
2023-03-03T22:49:05.369Z,6.12
2023-03-03T22:51:37.372Z,6.19
2023-03-03T22:54:17.345Z,6.16
2023-03-03T22:56:50.875Z,6.00
2023-03-03T22:59:18.980Z,6.24
2023-03-03T23:01:51.641Z,6.14
2023-03-03T23:04:22.377Z,6.07
2023-03-03T23:06:59.202Z,5.90
2023-03-03T23:09:43.316Z,6.13
2023-03-03T23:12:12.945Z,6.45
2023-03-03T23:14:44.666Z,6.20
2023-03-03T23:17:14.402Z,6.25
2023-03-03T23:19:53.550Z,6.10
2023-03-03T23:22:26.789Z,5.91
2023-03-03T23:25:02.408Z,5.85
2023-03-03T23:27:32.887Z,5.94
2023-03-03T23:30:03.532Z,6.02
2023-03-03T23:32:35.924Z,6.11
2023-03-03T23:35:06.720Z,5.81
2023-03-03T23:37:38.513Z,5.72
2023-03-03T23:40:10.278Z,5.83
2023-03-03T23:42:43.097Z,5.80
2023-03-03T23:45:13.940Z,5.61
2023-03-03T23:47:43.722Z,5.76
2023-03-03T23:50:24.821Z,5.72
2023-03-03T23:52:54.053Z,5.74
2023-03-03T23:55:27.036Z,5.59
2023-03-03T23:57:57.622Z,5.78
